Time;durP1;ratioP1;P1;durP2;ratioP2;P2;SDS_P1;SDS_P2;PMS_P1;PMS_P2;Temp;Humidity;BMP_temperature;BMP_pressure;BME280_temperature;BME280_humidity;BME280_pressure;Samples;Min_cycle;Max_cycle;Signal;HPM_P1;HPM_P2
2022/10/16 00:01:55;;;;;;;18.65;14.30;;;;;;;;;;10097670;28;20465;-77
2022/10/16 00:06:48;;;;;;;26.90;15.05;;;;;;;;;;10103500;28;20444;-76
2022/10/16 00:11:42;;;;;;;20.05;15.50;;;;;;;;;;10108105;28;20095;-76
2022/10/16 00:16:35;;;;;;;26.40;16.38;;;;;;;;;;10096511;28;20053;-76
2022/10/16 00:21:30;;;;;;;28.77;18.70;;;;;;;;;;10098896;28;20103;-76
2022/10/16 00:26:24;;;;;;;21.90;16.02;;;;;;;;;;10104795;28;20156;-75
2022/10/16 00:31:19;;;;;;;17.58;14.93;;;;;;;;;;10085172;28;20041;-76
2022/10/16 00:36:16;;;;;;;19.92;14.82;;;;;;;;;;10101079;28;20084;-75
2022/10/16 00:41:15;;;;;;;23.23;15.30;;;;;;;;;;10094531;28;20080;-75
2022/10/16 00:46:38;;;;;;;21.20;14.48;;;;;;;;;;10094919;28;20095;-76
2022/10/16 00:51:40;;;;;;;16.08;14.32;;;;;;;;;;10087070;28;20136;-76
2022/10/16 00:56:39;;;;;;;22.65;14.63;;;;;;;;;;10094074;28;20103;-75
2022/10/16 01:01:32;;;;;;;17.08;15.00;;;;;;;;;;10091510;28;20053;-76
2022/10/16 01:06:51;;;;;;;18.92;15.40;;;;;;;;;;10093786;28;20041;-76
2022/10/16 01:11:47;;;;;;;19.35;15.07;;;;;;;;;;10098833;28;20091;-76
2022/10/16 01:16:49;;;;;;;17.65;14.23;;;;;;;;;;10108652;28;20048;-77
2022/10/16 01:21:44;;;;;;;19.73;14.95;;;;;;;;;;10104885;28;20053;-77
2022/10/16 01:27:06;;;;;;;17.50;15.60;;;;;;;;;;10114195;28;20056;-78
2022/10/16 01:32:29;;;;;;;19.27;15.15;;;;;;;;;;10088435;28;20139;-77
2022/10/16 01:37:36;;;;;;;17.63;14.55;;;;;;;;;;10091466;28;20524;-77
2022/10/16 01:42:40;;;;;;;20.42;16.27;;;;;;;;;;10099193;28;20049;-77
2022/10/16 01:47:43;;;;;;;22.98;15.07;;;;;;;;;;10100367;28;20056;-77
2022/10/16 01:52:40;;;;;;;25.48;14.63;;;;;;;;;;10094016;28;20040;-77
2022/10/16 01:57:37;;;;;;;21.80;14.57;;;;;;;;;;10106389;28;20051;-73
2022/10/16 02:02:31;;;;;;;23.15;14.55;;;;;;;;;;10102473;28;20051;-73
2022/10/16 02:07:24;;;;;;;20.40;14.43;;;;;;;;;;10093069;28;20420;-73
2022/10/16 02:12:24;;;;;;;21.90;14.55;;;;;;;;;;10081689;28;20094;-73
2022/10/16 02:17:18;;;;;;;21.77;14.70;;;;;;;;;;10091315;28;20148;-75
2022/10/16 02:22:20;;;;;;;18.70;16.73;;;;;;;;;;10098258;28;20084;-77
2022/10/16 02:27:28;;;;;;;18.58;16.20;;;;;;;;;;10092444;28;20542;-77
2022/10/16 02:32:23;;;;;;;21.95;17.58;;;;;;;;;;10090253;28;20056;-75
2022/10/16 02:37:18;;;;;;;20.27;15.73;;;;;;;;;;10086889;28;20573;-76
2022/10/16 02:42:15;;;;;;;27.67;14.68;;;;;;;;;;10094666;28;20539;-75
2022/10/16 02:47:09;;;;;;;23.90;15.45;;;;;;;;;;10095197;28;20392;-75
2022/10/16 02:52:08;;;;;;;17.67;15.07;;;;;;;;;;10096220;28;20561;-77
2022/10/16 02:57:01;;;;;;;19.75;16.75;;;;;;;;;;10087282;28;20044;-76
2022/10/16 03:01:55;;;;;;;22.17;15.82;;;;;;;;;;10092037;28;20136;-76
2022/10/16 03:06:49;;;;;;;19.90;16.50;;;;;;;;;;10086670;28;20053;-76
2022/10/16 03:11:43;;;;;;;22.17;16.00;;;;;;;;;;10087777;28;20082;-76
2022/10/16 03:16:36;;;;;;;19.88;16.80;;;;;;;;;;10086510;28;20464;-75
2022/10/16 03:21:30;;;;;;;21.67;16.58;;;;;;;;;;10086337;28;20075;-76
2022/10/16 03:26:25;;;;;;;24.45;17.67;;;;;;;;;;10092083;28;20049;-76
2022/10/16 03:31:18;;;;;;;17.17;15.18;;;;;;;;;;10090224;28;20061;-75
2022/10/16 03:36:12;;;;;;;19.08;16.80;;;;;;;;;;10082249;28;20079;-76
2022/10/16 03:41:07;;;;;;;20.60;16.50;;;;;;;;;;10090178;28;20094;-75
2022/10/16 03:46:01;;;;;;;26.92;16.30;;;;;;;;;;10081641;28;20095;-75
2022/10/16 03:50:56;;;;;;;17.52;15.50;;;;;;;;;;10089731;28;20053;-76
2022/10/16 03:55:52;;;;;;;20.85;15.32;;;;;;;;;;10087535;28;20055;-75
2022/10/16 04:00:48;;;;;;;17.05;14.88;;;;;;;;;;10106417;28;20057;-75
2022/10/16 04:05:42;;;;;;;16.17;13.77;;;;;;;;;;10093295;28;20053;-77
2022/10/16 04:10:36;;;;;;;15.52;13.93;;;;;;;;;;10094255;28;20053;-74
2022/10/16 04:15:29;;;;;;;17.70;13.45;;;;;;;;;;10104479;28;20045;-75
2022/10/16 04:20:23;;;;;;;23.80;13.52;;;;;;;;;;10097989;28;20069;-75
2022/10/16 04:25:16;;;;;;;16.52;14.35;;;;;;;;;;10086582;28;20053;-75
2022/10/16 04:30:10;;;;;;;18.05;12.90;;;;;;;;;;10096766;28;20057;-75
2022/10/16 04:35:06;;;;;;;17.38;12.38;;;;;;;;;;10109637;28;20057;-75
2022/10/16 04:40:00;;;;;;;19.00;14.68;;;;;;;;;;10087950;28;20053;-75
2022/10/16 04:44:55;;;;;;;15.65;12.07;;;;;;;;;;10089710;28;20061;-75
2022/10/16 04:49:48;;;;;;;17.40;14.30;;;;;;;;;;10097522;28;20083;-75
2022/10/16 04:54:44;;;;;;;15.88;12.73;;;;;;;;;;10098612;28;20064;-75
2022/10/16 04:59:38;;;;;;;19.77;14.02;;;;;;;;;;10104921;28;20045;-76
2022/10/16 05:04:32;;;;;;;18.10;13.05;;;;;;;;;;10104395;28;20060;-76
2022/10/16 05:09:26;;;;;;;22.90;13.73;;;;;;;;;;10105243;28;20049;-76
2022/10/16 05:14:19;;;;;;;20.38;15.07;;;;;;;;;;10097003;28;20100;-75
2022/10/16 05:19:12;;;;;;;23.30;16.77;;;;;;;;;;10086529;28;20397;-75
2022/10/16 05:24:20;;;;;;;22.88;16.23;;;;;;;;;;10099310;28;20053;-75
2022/10/16 05:29:15;;;;;;;22.88;15.55;;;;;;;;;;10098536;28;20058;-75
2022/10/16 05:34:08;;;;;;;25.98;16.35;;;;;;;;;;10095393;28;20136;-72
2022/10/16 05:39:01;;;;;;;21.15;15.90;;;;;;;;;;10100476;28;20053;-73
2022/10/16 05:43:55;;;;;;;22.85;15.43;;;;;;;;;;10095121;28;20530;-73
2022/10/16 05:48:51;;;;;;;20.85;16.02;;;;;;;;;;10093975;28;20072;-78
2022/10/16 05:53:44;;;;;;;20.25;14.98;;;;;;;;;;10090132;28;20515;-78
2022/10/16 05:58:40;;;;;;;23.20;14.80;;;;;;;;;;10097623;28;20092;-78
2022/10/16 06:03:35;;;;;;;16.92;14.15;;;;;;;;;;10087545;28;20061;-78
2022/10/16 06:08:28;;;;;;;23.20;13.75;;;;;;;;;;10094426;28;20060;-78
2022/10/16 06:13:23;;;;;;;17.70;14.25;;;;;;;;;;10089262;28;20047;-79
2022/10/16 06:18:16;;;;;;;22.13;15.68;;;;;;;;;;10098732;28;20081;-77
2022/10/16 06:23:10;;;;;;;21.27;14.20;;;;;;;;;;10094487;28;20056;-79
2022/10/16 06:28:05;;;;;;;20.92;14.38;;;;;;;;;;10103149;28;20045;-78
2022/10/16 06:32:59;;;;;;;17.88;14.50;;;;;;;;;;10103120;28;20095;-78
2022/10/16 06:37:53;;;;;;;16.33;12.50;;;;;;;;;;10095704;28;20091;-76
2022/10/16 06:42:47;;;;;;;19.40;14.13;;;;;;;;;;10102718;28;20127;-78
2022/10/16 06:47:40;;;;;;;16.10;12.98;;;;;;;;;;10099066;28;20458;-78
2022/10/16 06:52:35;;;;;;;16.55;13.63;;;;;;;;;;10101511;28;20102;-77
2022/10/16 06:57:29;;;;;;;18.25;12.75;;;;;;;;;;10096451;28;20045;-77
2022/10/16 07:02:24;;;;;;;19.17;12.98;;;;;;;;;;10099650;28;20049;-78
2022/10/16 07:07:18;;;;;;;22.67;12.00;;;;;;;;;;10101692;28;20637;-75
2022/10/16 07:12:12;;;;;;;48.60;14.20;;;;;;;;;;10094420;28;20061;-73
2022/10/16 07:17:07;;;;;;;23.98;14.80;;;;;;;;;;10095447;28;20091;-77
2022/10/16 07:22:01;;;;;;;24.23;13.98;;;;;;;;;;10100002;28;20049;-76
2022/10/16 07:26:55;;;;;;;17.27;14.23;;;;;;;;;;10097043;28;20520;-76
2022/10/16 07:31:49;;;;;;;21.23;13.85;;;;;;;;;;10095808;28;20420;-78
2022/10/16 07:36:43;;;;;;;20.52;14.68;;;;;;;;;;10107572;28;20056;-76
2022/10/16 07:41:37;;;;;;;15.57;13.65;;;;;;;;;;10097706;28;20420;-80
2022/10/16 07:46:32;;;;;;;14.73;13.10;;;;;;;;;;10098865;28;20057;-77
2022/10/16 07:51:26;;;;;;;17.33;14.27;;;;;;;;;;10101153;28;20049;-77
2022/10/16 07:56:20;;;;;;;20.45;14.98;;;;;;;;;;10099275;28;20057;-77
2022/10/16 08:01:15;;;;;;;18.95;16.05;;;;;;;;;;10082158;28;20056;-79
2022/10/16 08:06:08;;;;;;;22.17;15.27;;;;;;;;;;10081589;28;20096;-79
2022/10/16 08:11:05;;;;;;;19.50;16.17;;;;;;;;;;10087572;28;20053;-78
2022/10/16 08:15:59;;;;;;;18.67;15.82;;;;;;;;;;10095547;28;20102;-78
2022/10/16 08:21:16;;;;;;;19.80;15.75;;;;;;;;;;10091132;28;20088;-78
2022/10/16 08:26:14;;;;;;;16.67;14.07;;;;;;;;;;10098533;28;20079;-79
2022/10/16 08:31:08;;;;;;;11.43;9.23;;;;;;;;;;10096617;28;20057;-78
2022/10/16 08:36:02;;;;;;;10.23;9.10;;;;;;;;;;10097793;28;20053;-80
2022/10/16 08:41:19;;;;;;;11.95;9.68;;;;;;;;;;10091074;28;20431;-80
2022/10/16 08:46:49;;;;;;;9.75;8.65;;;;;;;;;;10099372;28;20041;-79
2022/10/16 08:52:22;;;;;;;14.60;8.45;;;;;;;;;;10079919;28;20046;-80
2022/10/16 08:57:43;;;;;;;13.73;9.98;;;;;;;;;;10083573;28;20041;-79
2022/10/16 09:02:55;;;;;;;14.38;8.93;;;;;;;;;;10091474;28;20462;-79
2022/10/16 09:08:18;;;;;;;16.05;8.90;;;;;;;;;;10090191;28;20056;-79
2022/10/16 09:13:11;;;;;;;11.07;8.93;;;;;;;;;;10092544;28;20049;-80
2022/10/16 09:18:24;;;;;;;15.63;10.52;;;;;;;;;;10095929;28;20057;-79
2022/10/16 09:23:29;;;;;;;15.13;10.80;;;;;;;;;;10100167;28;20480;-79
2022/10/16 09:28:22;;;;;;;16.48;9.43;;;;;;;;;;10093964;28;20053;-79
2022/10/16 09:33:18;;;;;;;12.38;9.85;;;;;;;;;;10094958;28;20512;-80
2022/10/16 09:38:29;;;;;;;12.55;8.95;;;;;;;;;;10090664;28;20126;-79
2022/10/16 09:43:25;;;;;;;13.73;9.20;;;;;;;;;;10091478;28;20045;-79
2022/10/16 09:48:20;;;;;;;13.07;9.23;;;;;;;;;;10098152;28;20492;-80
2022/10/16 09:53:18;;;;;;;11.63;9.88;;;;;;;;;;10096931;28;20045;-80
2022/10/16 09:58:13;;;;;;;12.00;7.53;;;;;;;;;;10080568;28;20056;-80
2022/10/16 10:03:11;;;;;;;13.07;9.50;;;;;;;;;;10087215;28;20061;-79
2022/10/16 10:08:05;;;;;;;9.68;8.25;;;;;;;;;;10091990;28;20063;-80
2022/10/16 10:12:59;;;;;;;14.68;9.32;;;;;;;;;;10089080;28;20061;-80
2022/10/16 10:17:58;;;;;;;11.57;8.30;;;;;;;;;;10092696;28;20077;-79
2022/10/16 10:22:51;;;;;;;12.32;9.07;;;;;;;;;;10093432;28;20484;-80
2022/10/16 10:28:09;;;;;;;18.05;11.68;;;;;;;;;;10108755;28;20057;-77
2022/10/16 10:33:11;;;;;;;14.80;10.05;;;;;;;;;;10092426;28;20057;-76
2022/10/16 10:38:12;;;;;;;19.42;13.70;;;;;;;;;;10092589;28;20079;-77
2022/10/16 10:43:26;;;;;;;15.32;11.05;;;;;;;;;;10086489;28;20500;-80
2022/10/16 10:48:51;;;;;;;16.40;11.05;;;;;;;;;;10080432;28;20053;-81
2022/10/16 10:54:03;;;;;;;15.60;13.32;;;;;;;;;;10083326;28;20052;-80
2022/10/16 10:59:27;;;;;;;19.30;13.25;;;;;;;;;;10091105;28;20076;-77
2022/10/16 11:04:45;;;;;;;18.90;14.07;;;;;;;;;;10087094;28;20056;-80
2022/10/16 11:09:46;;;;;;;23.80;13.48;;;;;;;;;;10101492;28;20041;-80
2022/10/16 11:15:10;;;;;;;18.02;10.98;;;;;;;;;;10096205;28;20480;-80
2022/10/16 11:20:34;;;;;;;13.48;10.10;;;;;;;;;;10097415;28;20057;-80
2022/10/16 11:25:28;;;;;;;13.38;9.60;;;;;;;;;;10065765;28;20057;-81
2022/10/16 11:30:29;;;;;;;16.27;11.68;;;;;;;;;;10089827;28;20053;-81
2022/10/16 11:35:37;;;;;;;26.92;23.88;;;;;;;;;;10095202;28;20407;-80
2022/10/16 11:40:35;;;;;;;17.63;13.23;;;;;;;;;;10092233;28;20038;-80
2022/10/16 11:45:50;;;;;;;13.70;12.25;;;;;;;;;;10092044;28;20060;-80
2022/10/16 11:50:48;;;;;;;14.77;11.05;;;;;;;;;;10111055;28;20057;-80
2022/10/16 11:55:44;;;;;;;14.65;11.77;;;;;;;;;;10093718;28;20411;-81
2022/10/16 12:01:18;;;;;;;15.88;11.95;;;;;;;;;;10097885;28;20515;-79
2022/10/16 12:06:19;;;;;;;16.38;13.45;;;;;;;;;;10104709;28;20073;-80
2022/10/16 12:11:35;;;;;;;16.25;13.63;;;;;;;;;;10101046;28;20450;-79
2022/10/16 12:16:29;;;;;;;19.15;15.20;;;;;;;;;;10098430;28;20053;-74
2022/10/16 12:21:30;;;;;;;22.73;16.48;;;;;;;;;;10105773;28;20048;-72
2022/10/16 12:26:26;;;;;;;26.70;18.80;;;;;;;;;;10101435;28;20388;-75
2022/10/16 12:31:20;;;;;;;24.08;21.45;;;;;;;;;;10107182;28;20064;-77
2022/10/16 12:36:32;;;;;;;29.23;21.48;;;;;;;;;;10099436;28;20061;-78
2022/10/16 12:41:35;;;;;;;20.35;17.00;;;;;;;;;;10087852;28;20037;-78
2022/10/16 12:46:32;;;;;;;25.20;20.75;;;;;;;;;;10103239;28;20099;-79
2022/10/16 12:51:28;;;;;;;28.58;23.42;;;;;;;;;;10099280;28;20076;-78
2022/10/16 12:56:31;;;;;;;32.05;24.55;;;;;;;;;;10094861;28;20111;-80
2022/10/16 13:02:07;;;;;;;29.30;22.77;;;;;;;;;;10101379;28;20106;-81
2022/10/16 13:07:18;;;;;;;32.42;23.50;;;;;;;;;;10098526;28;20462;-70
2022/10/16 13:12:31;;;;;;;25.88;20.60;;;;;;;;;;10101631;28;20053;-70
2022/10/16 13:17:53;;;;;;;27.08;19.98;;;;;;;;;;10098799;28;20144;-73
2022/10/16 13:22:56;;;;;;;27.52;20.35;;;;;;;;;;10094742;28;20140;-71
2022/10/16 13:27:55;;;;;;;31.35;21.40;;;;;;;;;;10095773;28;20041;-73
2022/10/16 13:32:52;;;;;;;39.15;21.73;;;;;;;;;;10101095;28;20057;-74
2022/10/16 13:37:50;;;;;;;28.42;21.83;;;;;;;;;;10103449;28;20075;-74
2022/10/16 13:42:44;;;;;;;29.35;19.95;;;;;;;;;;10099444;28;20095;-77
2022/10/16 13:47:37;;;;;;;29.10;21.50;;;;;;;;;;10094707;28;20140;-73
2022/10/16 13:52:31;;;;;;;27.10;20.05;;;;;;;;;;10093814;28;20534;-73
2022/10/16 13:57:24;;;;;;;26.65;20.80;;;;;;;;;;10088490;28;20179;-76
2022/10/16 14:02:22;;;;;;;23.90;20.48;;;;;;;;;;10089575;28;20091;-76
2022/10/16 14:07:25;;;;;;;23.33;18.67;;;;;;;;;;10090311;28;20140;-80
2022/10/16 14:12:19;;;;;;;26.63;17.85;;;;;;;;;;10086148;28;20063;-76
2022/10/16 14:17:23;;;;;;;26.88;18.90;;;;;;;;;;10035467;28;20104;-79
2022/10/16 14:22:35;;;;;;;29.67;20.73;;;;;;;;;;9994045;28;20150;-78
2022/10/16 14:27:36;;;;;;;28.08;20.90;;;;;;;;;;9973358;28;20058;-76
2022/10/16 14:32:29;;;;;;;32.25;20.48;;;;;;;;;;9988042;28;20046;-73
2022/10/16 14:37:25;;;;;;;27.88;19.15;;;;;;;;;;9977627;28;20128;-70
2022/10/16 14:42:23;;;;;;;29.60;20.00;;;;;;;;;;9980569;28;20505;-71
2022/10/16 14:47:23;;;;;;;;;;;;;;;;;;9978970;28;20141;-72
2022/10/16 14:52:18;;;;;;;29.63;22.73;;;;;;;;;;9979705;28;20288;-73
2022/10/16 14:57:22;;;;;;;27.75;19.88;;;;;;;;;;9966093;28;20433;-73
2022/10/16 15:02:34;;;;;;;28.27;19.40;;;;;;;;;;9976743;28;20058;-72
2022/10/16 15:07:28;;;;;;;20.73;16.45;;;;;;;;;;9966431;28;20066;-73
2022/10/16 15:12:22;;;;;;;22.15;15.65;;;;;;;;;;9966785;28;20133;-73
2022/10/16 15:17:16;;;;;;;25.17;17.05;;;;;;;;;;9981019;28;20066;-72
2022/10/16 15:22:14;;;;;;;25.88;16.65;;;;;;;;;;9978841;28;20050;-73
2022/10/16 15:27:08;;;;;;;23.85;18.08;;;;;;;;;;9977166;28;20108;-72
2022/10/16 15:32:03;;;;;;;28.23;19.60;;;;;;;;;;9962548;28;20062;-72
2022/10/16 15:36:57;;;;;;;25.27;19.67;;;;;;;;;;9966187;28;20066;-71
2022/10/16 15:41:53;;;;;;;18.20;16.13;;;;;;;;;;9974072;28;20058;-72
2022/10/16 15:46:47;;;;;;;20.98;16.25;;;;;;;;;;9973075;28;20133;-77
2022/10/16 15:51:42;;;;;;;22.15;15.55;;;;;;;;;;9973383;28;20046;-72
2022/10/16 15:56:36;;;;;;;20.40;15.73;;;;;;;;;;9974764;28;20058;-72
2022/10/16 16:01:34;;;;;;;18.10;13.82;;;;;;;;;;9978541;28;20034;-73
2022/10/16 16:06:29;;;;;;;25.05;15.43;;;;;;;;;;9980232;28;20046;-72
2022/10/16 16:11:23;;;;;;;19.42;16.30;;;;;;;;;;9977260;28;20062;-81
2022/10/16 16:16:19;;;;;;;25.25;15.07;;;;;;;;;;9971616;28;20043;-80
2022/10/16 16:21:13;;;;;;;18.35;14.50;;;;;;;;;;9982886;28;20046;-79
2022/10/16 16:26:25;;;;;;;18.73;13.40;;;;;;;;;;9960717;28;20472;-80
2022/10/16 16:31:19;;;;;;;19.50;13.70;;;;;;;;;;9966847;28;20134;-81
2022/10/16 16:36:12;;;;;;;17.27;13.73;;;;;;;;;;9959055;28;20077;-84
2022/10/16 16:41:15;;;;;;;20.95;17.35;;;;;;;;;;9985143;28;20065;-83
2022/10/16 16:46:08;;;;;;;22.65;18.58;;;;;;;;;;9984526;28;20046;-81
2022/10/16 16:51:21;;;;;;;24.00;17.65;;;;;;;;;;10000609;28;20047;-81
2022/10/16 16:56:16;;;;;;;28.10;19.88;;;;;;;;;;10003773;28;20054;-79
2022/10/16 17:01:11;;;;;;;26.83;19.10;;;;;;;;;;10011481;28;20050;-81
2022/10/16 17:06:14;;;;;;;27.55;19.83;;;;;;;;;;10011617;28;20082;-79
2022/10/16 17:11:14;;;;;;;23.58;19.42;;;;;;;;;;10006221;28;20068;-80
2022/10/16 17:16:11;;;;;;;24.35;20.08;;;;;;;;;;10008040;28;20105;-82
2022/10/16 17:21:07;;;;;;;23.73;18.88;;;;;;;;;;9998840;28;20054;-81
2022/10/16 17:26:09;;;;;;;26.73;20.15;;;;;;;;;;9999222;28;20058;-82
2022/10/16 17:31:17;;;;;;;29.08;21.45;;;;;;;;;;9993085;28;20058;-80
2022/10/16 17:36:13;;;;;;;29.20;18.45;;;;;;;;;;10002725;28;20054;-78
2022/10/16 17:41:12;;;;;;;27.25;19.40;;;;;;;;;;10000856;28;20140;-77
2022/10/16 17:46:14;;;;;;;23.67;18.77;;;;;;;;;;10016908;28;20046;-78
2022/10/16 17:51:10;;;;;;;24.45;19.35;;;;;;;;;;9990193;28;20046;-77
2022/10/16 17:56:07;;;;;;;32.53;19.85;;;;;;;;;;9989478;28;20457;-79
2022/10/16 18:01:02;;;;;;;24.42;19.80;;;;;;;;;;9997711;28;20527;-73
2022/10/16 18:05:56;;;;;;;26.35;21.25;;;;;;;;;;9981581;28;20054;-72
2022/10/16 18:10:50;;;;;;;25.65;21.00;;;;;;;;;;9993377;28;20140;-69
2022/10/16 18:15:44;;;;;;;26.75;21.45;;;;;;;;;;9998441;28;20083;-69
2022/10/16 18:20:38;;;;;;;26.65;20.55;;;;;;;;;;9994466;28;20054;-68
2022/10/16 18:25:33;;;;;;;26.80;20.35;;;;;;;;;;9994060;28;20057;-67
2022/10/16 18:30:30;;;;;;;21.90;19.65;;;;;;;;;;9993676;28;20057;-68
2022/10/16 18:35:23;;;;;;;23.08;20.25;;;;;;;;;;9997716;28;20047;-70
2022/10/16 18:40:17;;;;;;;28.85;21.50;;;;;;;;;;9986022;28;20058;-69
2022/10/16 18:45:13;;;;;;;24.33;20.13;;;;;;;;;;9991284;28;20145;-70
2022/10/16 18:50:09;;;;;;;26.80;20.15;;;;;;;;;;9989807;28;20058;-71
2022/10/16 18:55:05;;;;;;;29.27;20.92;;;;;;;;;;9983634;28;20069;-70
2022/10/16 18:59:59;;;;;;;23.02;20.48;;;;;;;;;;9984029;28;20053;-69
2022/10/16 19:04:53;;;;;;;27.85;21.75;;;;;;;;;;9993654;28;20042;-70
2022/10/16 19:09:47;;;;;;;23.80;21.30;;;;;;;;;;9997794;28;20045;-70
2022/10/16 19:14:41;;;;;;;27.50;22.33;;;;;;;;;;10004505;28;20058;-70
2022/10/16 19:19:37;;;;;;;25.83;20.85;;;;;;;;;;9990369;28;20202;-70
2022/10/16 19:24:33;;;;;;;23.63;19.63;;;;;;;;;;9977263;28;20053;-68
2022/10/16 19:29:29;;;;;;;24.85;19.98;;;;;;;;;;9986146;28;20065;-68
2022/10/16 19:34:23;;;;;;;29.45;20.25;;;;;;;;;;9983445;28;20050;-69
2022/10/16 19:39:17;;;;;;;24.85;21.35;;;;;;;;;;9992496;28;20514;-69
2022/10/16 19:44:31;;;;;;;27.67;22.42;;;;;;;;;;9974346;28;20062;-68
2022/10/16 19:49:25;;;;;;;31.48;22.23;;;;;;;;;;9976459;28;20476;-68
2022/10/16 19:54:19;;;;;;;30.00;24.30;;;;;;;;;;9973278;28;20913;-68
2022/10/16 19:59:16;;;;;;;26.90;23.83;;;;;;;;;;9977383;28;20531;-69
2022/10/16 20:04:09;;;;;;;28.05;24.90;;;;;;;;;;9984740;28;20050;-69
2022/10/16 20:09:05;;;;;;;27.15;23.55;;;;;;;;;;9990336;28;20061;-67
2022/10/16 20:13:59;;;;;;;35.58;23.40;;;;;;;;;;9989162;28;20066;-67
2022/10/16 20:18:54;;;;;;;32.17;23.50;;;;;;;;;;9991215;28;20054;-67
2022/10/16 20:23:49;;;;;;;32.28;25.15;;;;;;;;;;9984406;28;20098;-67
2022/10/16 20:28:43;;;;;;;36.58;24.77;;;;;;;;;;9983000;28;20042;-67
2022/10/16 20:33:37;;;;;;;28.40;21.85;;;;;;;;;;9993842;28;20051;-71
2022/10/16 20:38:30;;;;;;;30.35;25.80;;;;;;;;;;9994240;28;20061;-69
2022/10/16 20:43:25;;;;;;;32.42;24.17;;;;;;;;;;10000580;28;20528;-67
2022/10/16 20:48:19;;;;;;;28.02;22.38;;;;;;;;;;9984515;28;20038;-69
2022/10/16 20:53:13;;;;;;;27.88;22.75;;;;;;;;;;9973023;28;20110;-68
2022/10/16 20:58:07;;;;;;;26.77;23.15;;;;;;;;;;9966731;28;20059;-67
2022/10/16 21:03:00;;;;;;;31.88;24.55;;;;;;;;;;9970920;28;20055;-66
2022/10/16 21:07:54;;;;;;;29.45;24.33;;;;;;;;;;9974927;28;20085;-68
2022/10/16 21:12:48;;;;;;;29.52;23.85;;;;;;;;;;9968397;28;20049;-68
2022/10/16 21:17:40;;;;;;;35.95;25.40;;;;;;;;;;9979916;28;20086;-68
2022/10/16 21:22:34;;;;;;;28.13;24.48;;;;;;;;;;9982983;28;20156;-68
2022/10/16 21:27:29;;;;;;;34.28;26.02;;;;;;;;;;9978401;28;20052;-68
2022/10/16 21:32:23;;;;;;;39.47;25.17;;;;;;;;;;9968459;28;20034;-68
2022/10/16 21:37:16;;;;;;;32.17;25.52;;;;;;;;;;9969779;28;20078;-69
2022/10/16 21:42:10;;;;;;;31.63;26.58;;;;;;;;;;9963784;28;20141;-68
2022/10/16 21:47:04;;;;;;;38.45;27.80;;;;;;;;;;9977768;28;20054;-68
2022/10/16 21:51:59;;;;;;;36.50;26.60;;;;;;;;;;9974765;28;20054;-68
2022/10/16 21:56:52;;;;;;;35.80;25.58;;;;;;;;;;9979465;28;20050;-68
2022/10/16 22:01:47;;;;;;;36.45;28.60;;;;;;;;;;9974919;28;20050;-68
2022/10/16 22:06:40;;;;;;;32.03;24.83;;;;;;;;;;9975018;28;20064;-68
2022/10/16 22:11:36;;;;;;;31.33;25.40;;;;;;;;;;9980975;28;20050;-69
2022/10/16 22:16:37;;;;;;;32.40;24.05;;;;;;;;;;9981464;28;20050;-68
2022/10/16 22:21:31;;;;;;;25.83;22.90;;;;;;;;;;9979431;28;20137;-68
2022/10/16 22:26:25;;;;;;;33.88;23.48;;;;;;;;;;9980708;28;20050;-68
2022/10/16 22:31:20;;;;;;;27.05;22.80;;;;;;;;;;9971088;28;20129;-68
2022/10/16 22:36:14;;;;;;;33.83;24.13;;;;;;;;;;9965248;28;20058;-69
2022/10/16 22:41:12;;;;;;;40.00;25.30;;;;;;;;;;9965262;28;20047;-68
2022/10/16 22:46:08;;;;;;;30.20;24.20;;;;;;;;;;9980387;28;20063;-68
2022/10/16 22:51:03;;;;;;;26.02;22.50;;;;;;;;;;9976746;28;20074;-68
2022/10/16 22:55:56;;;;;;;36.20;27.63;;;;;;;;;;9984619;28;20502;-68
2022/10/16 23:00:51;;;;;;;42.05;26.08;;;;;;;;;;9976019;28;20391;-69
2022/10/16 23:05:46;;;;;;;28.38;23.85;;;;;;;;;;9984572;28;20065;-68
2022/10/16 23:10:42;;;;;;;29.25;23.00;;;;;;;;;;9981471;28;20582;-69
2022/10/16 23:15:41;;;;;;;26.85;21.52;;;;;;;;;;9970010;28;20046;-68
2022/10/16 23:20:38;;;;;;;32.05;27.27;;;;;;;;;;9970170;28;20058;-68
2022/10/16 23:25:32;;;;;;;34.00;25.77;;;;;;;;;;9984287;28;20117;-68
2022/10/16 23:30:26;;;;;;;36.05;27.02;;;;;;;;;;9978291;28;20124;-68
2022/10/16 23:35:19;;;;;;;33.80;26.63;;;;;;;;;;9986698;28;20137;-68
2022/10/16 23:40:13;;;;;;;33.60;25.85;;;;;;;;;;9986418;28;20051;-68
2022/10/16 23:45:09;;;;;;;34.30;26.65;;;;;;;;;;9985737;28;20055;-68
2022/10/16 23:50:03;;;;;;;35.58;24.27;;;;;;;;;;9978001;28;20050;-68
2022/10/16 23:54:57;;;;;;;33.80;27.95;;;;;;;;;;9985087;28;20405;-68
2022/10/16 23:59:51;;;;;;;33.50;25.75;;;;;;;;;;9983752;28;20064;-68
